Time;durP1;ratioP1;P1;durP2;ratioP2;P2;SDS_P1;SDS_P2;PMS_P1;PMS_P2;Temp;Humidity;BMP_temperature;BMP_pressure;BME280_temperature;BME280_humidity;BME280_pressure;Samples;Min_cycle;Max_cycle;Signal;HPM_P1;HPM_P2
2024/01/23 00:00:08;;;;;;;15.13;3.05;;;;;;;7.99;94.56;101614.25;5033059;28;20037;-82
2024/01/23 00:02:34;;;;;;;15.88;3.20;;;;;;;7.86;95.33;101609.44;5032969;28;20061;-82
2024/01/23 00:05:00;;;;;;;11.30;2.83;;;;;;;7.96;95.50;101632.56;5014935;28;20037;-84
2024/01/23 00:07:25;;;;;;;21.02;3.53;;;;;;;7.86;94.93;101613.81;5032865;28;20033;-83
2024/01/23 00:09:50;;;;;;;17.88;3.55;;;;;;;7.98;94.50;101651.06;5032791;28;20148;-82
2024/01/23 00:12:16;;;;;;;11.77;2.67;;;;;;;7.96;94.28;101653.63;5035990;28;20114;-82
2024/01/23 00:14:41;;;;;;;14.00;3.20;;;;;;;7.96;93.84;101644.84;5036765;28;20060;-82
2024/01/23 00:17:06;;;;;;;16.60;3.20;;;;;;;7.95;94.08;101664.13;5036687;28;20449;-83
2024/01/23 00:19:32;;;;;;;15.07;3.22;;;;;;;7.95;94.22;101665.00;5036495;28;20129;-82
2024/01/23 00:21:57;;;;;;;14.35;3.10;;;;;;;7.94;94.06;101668.47;5036156;28;20036;-83
2024/01/23 00:24:23;;;;;;;17.83;3.13;;;;;;;7.94;94.78;101675.50;5036569;28;20038;-83
2024/01/23 00:26:49;;;;;;;16.05;2.65;;;;;;;7.82;94.08;101654.91;5019012;28;20040;-82
2024/01/23 00:29:15;;;;;;;16.15;3.35;;;;;;;7.84;94.44;101655.88;5036553;28;20033;-83
2024/01/23 00:31:40;;;;;;;15.88;3.15;;;;;;;7.89;94.73;101672.69;5036593;28;20037;-83
2024/01/23 00:34:06;;;;;;;16.25;3.00;;;;;;;7.91;94.84;101672.75;5036373;28;20458;-83
2024/01/23 00:36:31;;;;;;;19.42;3.47;;;;;;;7.87;95.23;101684.00;5036315;28;20118;-83
2024/01/23 00:38:57;;;;;;;18.48;3.55;;;;;;;7.85;94.89;101675.16;5035961;28;20033;-82
2024/01/23 00:41:22;;;;;;;18.45;3.20;;;;;;;7.85;95.10;101686.59;5036170;28;20049;-82
2024/01/23 00:43:48;;;;;;;12.63;3.00;;;;;;;7.79;96.00;101686.34;5036222;28;20040;-83
2024/01/23 00:46:13;;;;;;;15.27;3.08;;;;;;;7.78;95.66;101690.72;5036066;28;20051;-83
2024/01/23 00:48:39;;;;;;;16.98;2.97;;;;;;;7.78;95.48;101697.72;5035924;28;20048;-82
2024/01/23 00:51:04;;;;;;;16.35;3.13;;;;;;;7.76;95.67;101691.53;5001950;28;20088;-82
2024/01/23 00:53:30;;;;;;;17.15;3.80;;;;;;;7.76;94.32;101684.53;5035947;28;20497;-83
2024/01/23 00:55:58;;;;;;;17.27;3.28;;;;;;;7.77;94.79;101677.53;5036004;28;20033;-83
2024/01/23 00:58:23;;;;;;;19.58;3.38;;;;;;;7.77;95.01;101690.69;5018644;28;20044;-83
2024/01/23 01:00:49;;;;;;;19.08;3.05;;;;;;;7.81;94.49;101726.78;5035855;28;20029;-82
2024/01/23 01:03:14;;;;;;;14.93;2.90;;;;;;;7.77;94.90;101730.16;5017946;28;20040;-82
2024/01/23 01:05:41;;;;;;;15.90;2.83;;;;;;;7.50;94.67;101694.09;5035717;28;20155;-82
2024/01/23 01:08:07;;;;;;;17.77;3.13;;;;;;;7.72;95.05;101723.81;5035788;28;20030;-83
2024/01/23 01:10:32;;;;;;;15.23;4.05;;;;;;;7.73;94.93;101726.50;5035760;28;20390;-82
2024/01/23 01:12:58;;;;;;;15.32;3.15;;;;;;;7.65;95.06;101727.06;5035691;28;20448;-82
2024/01/23 01:15:23;;;;;;;13.57;2.80;;;;;;;7.66;94.69;101748.16;5035645;28;20063;-82
2024/01/23 01:17:49;;;;;;;12.13;2.80;;;;;;;7.62;95.15;101740.09;5035593;28;20037;-83
2024/01/23 01:20:15;;;;;;;16.88;3.05;;;;;;;7.47;95.04;101722.03;5035357;28;20030;-83
2024/01/23 01:22:41;;;;;;;22.70;3.53;;;;;;;7.56;95.05;101755.66;5034415;28;20183;-82
2024/01/23 01:25:08;;;;;;;20.17;3.50;;;;;;;7.47;95.06;101758.84;5035451;28;20120;-83
2024/01/23 01:27:34;;;;;;;15.15;3.25;;;;;;;7.49;96.10;101767.66;5035204;28;20032;-82
2024/01/23 01:30:00;;;;;;;14.90;2.97;;;;;;;7.44;94.92;101769.22;5017548;28;20034;-83
2024/01/23 01:32:25;;;;;;;13.80;2.70;;;;;;;7.46;95.30;101788.59;5034946;28;20052;-83
2024/01/23 01:34:50;;;;;;;17.90;3.72;;;;;;;7.41;94.82;101785.81;5035082;28;20033;-82
2024/01/23 01:37:16;;;;;;;14.35;3.00;;;;;;;7.41;95.96;101793.69;5035214;28;20068;-82
2024/01/23 01:39:41;;;;;;;12.40;3.13;;;;;;;7.30;95.53;101778.31;5035189;28;20033;-82
2024/01/23 01:42:06;;;;;;;22.67;3.40;;;;;;;7.26;95.43;101790.44;5035153;28;20112;-83
2024/01/23 01:44:36;;;;;;;19.20;3.83;;;;;;;7.20;95.87;101799.00;5034844;28;20076;-83
2024/01/23 01:47:02;;;;;;;13.57;2.85;;;;;;;7.30;96.07;101813.41;5034986;28;20393;-83
2024/01/23 01:49:27;;;;;;;18.75;3.92;;;;;;;7.25;96.42;101807.97;5034906;28;20069;-83
2024/01/23 01:51:53;;;;;;;17.20;3.00;;;;;;;7.00;96.14;101757.88;5034903;28;20061;-82
2024/01/23 01:54:21;;;;;;;15.48;2.92;;;;;;;7.23;96.00;101806.97;5034916;28;20037;-83
2024/01/23 01:56:46;;;;;;;14.38;3.10;;;;;;;7.26;96.10;101817.63;5017491;28;20041;-82
2024/01/23 01:59:12;;;;;;;14.05;3.10;;;;;;;7.25;96.48;101822.84;5034834;28;20458;-83
2024/01/23 02:01:39;;;;;;;18.27;3.40;;;;;;;7.24;97.02;101842.09;5034498;28;20462;-82
2024/01/23 02:04:04;;;;;;;20.40;3.55;;;;;;;7.22;96.96;101849.88;5034710;28;20103;-83
2024/01/23 02:06:32;;;;;;;14.63;2.97;;;;;;;7.21;96.99;101852.47;5034560;28;20073;-83
2024/01/23 02:08:57;;;;;;;24.80;3.20;;;;;;;7.21;96.49;101849.84;5034352;28;20108;-83
2024/01/23 02:11:25;;;;;;;16.83;3.08;;;;;;;7.18;97.00;101858.47;5016789;28;20513;-82
2024/01/23 02:13:51;;;;;;;14.68;3.75;;;;;;;7.03;96.85;101840.38;5034443;28;20064;-82
2024/01/23 02:16:18;;;;;;;18.85;3.10;;;;;;;7.09;96.71;101858.13;5034430;28;20462;-82
2024/01/23 02:18:43;;;;;;;15.40;2.97;;;;;;;7.14;96.59;101874.06;5034016;28;20052;-82
2024/01/23 02:21:09;;;;;;;14.68;3.17;;;;;;;7.11;96.93;101864.34;5033981;28;20474;-82
2024/01/23 02:23:35;;;;;;;18.55;3.10;;;;;;;7.10;97.11;101874.78;5034138;28;20067;-82
2024/01/23 02:26:00;;;;;;;16.50;3.33;;;;;;;7.08;97.07;101877.34;5016326;28;20034;-82
2024/01/23 02:28:26;;;;;;;16.45;3.42;;;;;;;7.03;96.83;101890.31;5034094;28;20149;-82
2024/01/23 02:30:51;;;;;;;21.15;3.72;;;;;;;7.05;97.41;101899.97;5033623;28;20033;-82
2024/01/23 02:33:16;;;;;;;14.23;2.83;;;;;;;7.05;97.25;101892.09;5033556;28;20105;-83
2024/01/23 02:35:42;;;;;;;18.48;3.28;;;;;;;6.98;97.30;101888.28;5014107;28;20422;-83
2024/01/23 02:38:08;;;;;;;16.25;2.92;;;;;;;7.01;97.02;101893.69;5033444;28;20058;-83
2024/01/23 02:40:34;;;;;;;12.18;3.08;;;;;;;7.02;97.88;101917.41;5033992;28;20393;-82
2024/01/23 02:42:59;;;;;;;25.65;3.80;;;;;;;6.97;97.82;101912.78;5033725;28;20041;-83
2024/01/23 02:45:25;;;;;;;17.25;3.88;;;;;;;6.99;97.17;101926.91;5016172;28;20087;-83
2024/01/23 02:47:50;;;;;;;21.80;3.75;;;;;;;6.94;97.42;101920.56;5033499;28;20044;-82
2024/01/23 02:50:15;;;;;;;17.20;3.53;;;;;;;6.97;97.71;101918.94;5033405;28;20109;-82
2024/01/23 02:52:41;;;;;;;22.88;3.60;;;;;;;6.85;97.87;101912.25;5033689;28;20087;-83
2024/01/23 02:55:06;;;;;;;17.98;3.65;;;;;;;6.95;97.51;101943.38;5033573;28;20065;-83
2024/01/23 02:57:32;;;;;;;14.13;3.30;;;;;;;6.83;97.89;101927.06;5033536;28;20053;-83
2024/01/23 02:59:57;;;;;;;15.32;3.15;;;;;;;6.86;98.19;101938.63;5033752;28;20102;-82
2024/01/23 03:02:23;;;;;;;17.27;3.03;;;;;;;6.92;97.91;101954.63;5015483;28;20052;-82
2024/01/23 03:04:49;;;;;;;14.68;2.80;;;;;;;6.86;98.15;101949.13;5033439;28;20048;-83
2024/01/23 03:07:15;;;;;;;17.67;2.83;;;;;;;6.89;97.76;101950.97;5033308;28;20025;-83
2024/01/23 03:09:41;;;;;;;18.40;3.80;;;;;;;6.86;98.58;101958.75;5033403;28;20033;-83
2024/01/23 03:12:23;;;;;;;17.92;3.05;;;;;;;6.80;98.33;101950.56;5033025;28;20100;-83
2024/01/23 03:14:50;;;;;;;19.77;3.83;;;;;;;6.81;98.90;101958.53;5033206;28;20037;-83
2024/01/23 03:17:17;;;;;;;22.75;3.92;;;;;;;6.84;99.07;101965.63;5033287;28;20034;-83
2024/01/23 03:19:43;;;;;;;12.98;3.08;;;;;;;6.87;98.79;101973.66;5032754;28;20135;-83
2024/01/23 03:22:09;;;;;;;23.15;3.22;;;;;;;6.66;99.62;101952.59;5032932;28;20037;-83
2024/01/23 03:24:39;;;;;;;18.65;3.58;;;;;;;6.85;98.81;101997.25;5033124;28;20040;-83
2024/01/23 03:27:06;;;;;;;18.13;3.70;;;;;;;6.74;99.30;101970.50;5033106;28;20038;-83
2024/01/23 03:29:41;;;;;;;16.85;3.25;;;;;;;6.80;99.07;101990.88;5033128;28;20029;-82
2024/01/23 03:32:08;;;;;;;16.50;2.95;;;;;;;6.82;99.51;101994.47;5033036;28;20080;-83
2024/01/23 03:34:33;;;;;;;16.42;3.05;;;;;;;6.81;98.77;101989.13;5032989;28;20037;-82
2024/01/23 03:37:01;;;;;;;16.65;3.47;;;;;;;6.69;99.63;101969.41;5032434;28;20056;-81
2024/01/23 03:39:27;;;;;;;21.13;3.38;;;;;;;6.76;99.25;101991.56;5032904;28;20187;-83
2024/01/23 03:41:52;;;;;;;18.92;3.53;;;;;;;6.74;99.77;101998.50;5015024;28;20441;-82
2024/01/23 03:44:18;;;;;;;18.15;3.67;;;;;;;6.70;100.00;102009.69;5032876;28;20060;-83
2024/01/23 03:46:43;;;;;;;16.23;3.30;;;;;;;6.48;99.77;101982.47;5035231;28;20437;-83
2024/01/23 03:49:09;;;;;;;19.42;3.35;;;;;;;6.53;100.00;102007.19;5036508;28;20068;-82
2024/01/23 03:51:34;;;;;;;16.52;3.10;;;;;;;6.64;100.00;102043.56;5036862;28;20030;-82
2024/01/23 03:53:59;;;;;;;16.20;3.50;;;;;;;6.28;100.00;101996.38;5036890;28;20527;-83
2024/01/23 03:56:25;;;;;;;16.80;3.42;;;;;;;6.43;100.00;102031.25;5018707;28;20068;-83
2024/01/23 03:58:50;;;;;;;17.55;3.15;;;;;;;6.51;100.00;102049.97;5036731;28;20029;-83
2024/01/23 04:01:16;;;;;;;26.70;3.63;;;;;;;6.53;100.00;102059.72;5036886;28;20088;-83
2024/01/23 04:03:41;;;;;;;19.65;3.10;;;;;;;6.48;100.00;102057.69;5036540;28;20037;-82
2024/01/23 04:06:06;;;;;;;15.43;3.28;;;;;;;6.39;100.00;102031.03;5018796;28;20080;-83
2024/01/23 04:08:32;;;;;;;17.63;3.47;;;;;;;6.42;100.00;102042.53;5036727;28;20029;-83
2024/01/23 04:10:57;;;;;;;26.42;4.80;;;;;;;6.39;100.00;102047.66;5018921;28;20037;-83
2024/01/23 04:13:25;;;;;;;18.00;3.47;;;;;;;6.32;100.00;102036.81;5036711;28;20033;-82
2024/01/23 04:15:51;;;;;;;17.13;3.42;;;;;;;6.37;100.00;102044.06;5036532;28;20029;-82
2024/01/23 04:18:16;;;;;;;17.67;3.47;;;;;;;6.35;100.00;102055.34;5036590;28;20038;-82
2024/01/23 04:20:41;;;;;;;18.23;3.92;;;;;;;6.05;100.00;101999.66;5036393;28;20112;-82
2024/01/23 04:23:07;;;;;;;14.82;3.30;;;;;;;6.32;100.00;102052.56;5036152;28;20544;-83
2024/01/23 04:25:32;;;;;;;18.75;3.22;;;;;;;6.08;100.00;102029.56;5036408;28;20478;-82
2024/01/23 04:27:58;;;;;;;19.10;3.42;;;;;;;6.13;100.00;102041.19;5036331;28;20026;-82
2024/01/23 04:30:25;;;;;;;20.13;4.20;;;;;;;6.26;100.00;102071.53;5036356;28;20478;-82
2024/01/23 04:32:50;;;;;;;17.42;3.30;;;;;;;6.09;100.00;102054.09;5035992;28;20036;-83
2024/01/23 04:35:16;;;;;;;19.77;3.58;;;;;;;6.20;100.00;102076.47;5036206;28;20037;-83
2024/01/23 04:37:41;;;;;;;20.00;3.28;;;;;;;6.18;100.00;102092.16;5017786;28;20041;-83
2024/01/23 04:40:08;;;;;;;21.58;4.28;;;;;;;6.03;100.00;102073.03;5036115;28;20041;-84
2024/01/23 04:42:37;;;;;;;16.60;3.00;;;;;;;6.11;100.00;102107.53;5035958;28;20573;-83
2024/01/23 04:45:03;;;;;;;18.17;3.72;;;;;;;6.00;100.00;102092.16;5036069;28;20037;-83
2024/01/23 04:47:28;;;;;;;17.50;3.00;;;;;;;6.07;100.00;102119.59;5035932;28;20526;-83
2024/01/23 04:49:54;;;;;;;18.77;3.15;;;;;;;6.09;100.00;102122.31;5035738;28;20061;-84
2024/01/23 04:52:20;;;;;;;18.33;3.28;;;;;;;6.08;100.00;102125.75;5035918;28;20099;-83
2024/01/23 04:54:45;;;;;;;17.83;3.40;;;;;;;6.07;100.00;102131.81;5035590;28;20035;-83
2024/01/23 04:57:11;;;;;;;22.38;4.05;;;;;;;5.93;100.00;102115.41;5035423;28;20032;-83
2024/01/23 04:59:37;;;;;;;17.20;3.42;;;;;;;6.02;100.00;102136.84;5035433;28;20033;-83
2024/01/23 05:02:04;;;;;;;20.92;3.65;;;;;;;5.85;100.00;102119.31;5035750;28;20080;-83
2024/01/23 05:04:29;;;;;;;22.17;3.22;;;;;;;5.89;100.00;102142.25;5035880;28;20032;-83
2024/01/23 05:06:55;;;;;;;16.85;3.22;;;;;;;5.86;100.00;102142.09;5035734;28;20025;-83
2024/01/23 05:09:20;;;;;;;12.32;3.13;;;;;;;5.98;100.00;102164.63;5035780;28;20033;-84
2024/01/23 05:11:49;;;;;;;21.33;3.50;;;;;;;5.93;100.00;102171.38;5035759;28;20033;-83
2024/01/23 05:14:17;;;;;;;19.15;4.10;;;;;;;5.93;100.00;102181.88;5035650;28;20097;-83
2024/01/23 05:16:42;;;;;;;14.85;3.08;;;;;;;5.93;100.00;102189.75;5001514;28;20095;-84
2024/01/23 05:19:08;;;;;;;17.25;3.28;;;;;;;5.89;100.00;102192.09;5034997;28;20034;-83
2024/01/23 05:21:33;;;;;;;17.88;2.90;;;;;;;5.91;100.00;102187.81;5035516;28;20112;-83
2024/01/23 05:24:01;;;;;;;22.52;3.85;;;;;;;5.89;100.00;102186.84;5035217;28;20110;-83
2024/01/23 05:26:27;;;;;;;15.55;3.05;;;;;;;5.83;100.00;102184.84;5035327;28;20488;-83
2024/01/23 05:28:52;;;;;;;17.70;3.75;;;;;;;5.87;100.00;102196.38;5035579;28;20070;-83
2024/01/23 05:31:18;;;;;;;19.38;3.22;;;;;;;5.58;100.00;102148.56;5017309;28;20087;-83
2024/01/23 05:33:43;;;;;;;18.98;3.80;;;;;;;5.75;100.00;102188.78;5017432;28;20128;-83
2024/01/23 05:36:09;;;;;;;15.18;3.20;;;;;;;5.72;100.00;102199.09;5034917;28;20120;-84
2024/01/23 05:38:34;;;;;;;20.60;3.60;;;;;;;5.77;100.00;102224.72;5034626;28;20102;-83
2024/01/23 05:41:00;;;;;;;19.27;3.40;;;;;;;5.74;100.00;102221.97;5017416;28;20038;-84
2024/01/23 05:43:25;;;;;;;22.70;3.60;;;;;;;5.76;100.00;102249.16;5035041;28;20488;-83
2024/01/23 05:45:53;;;;;;;21.02;3.40;;;;;;;5.75;100.00;102254.34;5034919;28;20035;-83
2024/01/23 05:48:18;;;;;;;22.10;3.67;;;;;;;5.71;100.00;102261.16;5034947;28;20041;-84
2024/01/23 05:50:44;;;;;;;18.65;3.33;;;;;;;5.68;100.00;102260.97;5034377;28;20508;-83
2024/01/23 05:53:09;;;;;;;20.65;3.17;;;;;;;5.37;100.00;102224.34;5016976;28;20035;-83
2024/01/23 05:55:34;;;;;;;20.70;3.30;;;;;;;5.67;100.00;102281.88;5034762;28;20120;-83
2024/01/23 05:58:03;;;;;;;15.38;3.33;;;;;;;5.59;100.00;102272.69;5034470;28;20044;-85
2024/01/23 06:00:29;;;;;;;13.05;2.78;;;;;;;5.62;100.00;102276.38;5034715;28;20037;-83
2024/01/23 06:02:54;;;;;;;21.25;3.50;;;;;;;5.60;100.00;102277.13;5034545;28;20030;-84
2024/01/23 06:05:19;;;;;;;15.15;3.42;;;;;;;5.58;100.00;102284.00;5016650;28;20044;-83
2024/01/23 06:07:49;;;;;;;19.70;3.60;;;;;;;5.57;100.00;102277.88;5034595;28;20025;-83
2024/01/23 06:10:15;;;;;;;18.17;3.40;;;;;;;5.57;100.00;102288.34;5016293;28;20116;-82
2024/01/23 06:12:40;;;;;;;16.33;3.45;;;;;;;5.55;100.00;102279.50;5034445;28;20402;-83
2024/01/23 06:15:07;;;;;;;19.38;3.08;;;;;;;5.56;100.00;102272.53;5034147;28;20034;-84
2024/01/23 06:17:32;;;;;;;13.68;3.17;;;;;;;5.55;100.00;102284.75;5034063;28;20435;-83
2024/01/23 06:20:00;;;;;;;19.23;3.20;;;;;;;5.45;100.00;102275.47;5016669;28;20080;-83
2024/01/23 06:22:28;;;;;;;13.80;3.67;;;;;;;5.55;100.00;102299.56;5034668;28;20036;-84
2024/01/23 06:25:02;;;;;;;19.95;3.60;;;;;;;5.47;100.00;102280.78;5016639;28;20073;-84
2024/01/23 06:27:27;;;;;;;17.25;3.22;;;;;;;5.53;100.00;102299.50;5034177;28;20474;-83
2024/01/23 06:29:53;;;;;;;23.58;4.38;;;;;;;5.55;100.00;102308.34;5034239;28;20060;-83
2024/01/23 06:32:18;;;;;;;18.15;2.97;;;;;;;5.58;100.00;102312.84;5033860;28;20068;-84
2024/01/23 06:34:44;;;;;;;19.48;3.88;;;;;;;5.57;100.00;102319.81;5034003;28;20117;-83
2024/01/23 06:37:09;;;;;;;20.90;4.07;;;;;;;5.53;100.00;102321.38;5034033;28;20033;-83
2024/01/23 06:39:35;;;;;;;17.88;3.88;;;;;;;5.45;100.00;102308.66;5034019;28;20056;-83
2024/01/23 06:42:00;;;;;;;23.95;4.22;;;;;;;5.37;100.00;102295.13;5033700;28;20037;-83
2024/01/23 06:44:25;;;;;;;23.90;2.97;;;;;;;5.50;100.00;102317.66;5033641;28;20041;-83
2024/01/23 06:46:51;;;;;;;24.70;3.60;;;;;;;5.49;100.00;102308.00;5033357;28;20124;-83
2024/01/23 06:49:16;;;;;;;10.23;2.85;;;;;;;5.54;100.00;102317.03;5033270;28;20033;-83
2024/01/23 06:51:42;;;;;;;17.33;3.35;;;;;;;5.42;100.00;102298.00;5015874;28;20180;-84
2024/01/23 06:54:07;;;;;;;18.63;3.40;;;;;;;5.51;100.00;102324.72;5033772;28;20021;-83
2024/01/23 06:56:34;;;;;;;23.55;3.83;;;;;;;5.44;100.00;102312.09;4983595;28;20127;-83
2024/01/23 06:58:59;;;;;;;14.90;3.28;;;;;;;5.52;100.00;102343.16;5033650;28;20034;-83
2024/01/23 07:01:26;;;;;;;17.17;3.45;;;;;;;5.37;100.00;102337.06;5033639;28;20048;-83
2024/01/23 07:03:52;;;;;;;15.00;3.40;;;;;;;5.39;100.00;102332.78;5033564;28;20036;-83
2024/01/23 07:06:17;;;;;;;19.73;3.75;;;;;;;5.38;100.00;102336.25;5033377;28;20034;-83
2024/01/23 07:08:43;;;;;;;20.33;3.75;;;;;;;5.50;100.00;102354.38;5033526;28;20037;-83
2024/01/23 07:11:08;;;;;;;22.25;4.00;;;;;;;5.47;100.00;102355.09;4999518;28;20103;-83
2024/01/23 07:13:33;;;;;;;19.90;3.40;;;;;;;5.47;100.00;102362.97;5033179;28;20065;-83
2024/01/23 07:15:59;;;;;;;23.35;3.75;;;;;;;5.44;100.00;102356.66;5033182;28;20432;-83
2024/01/23 07:18:24;;;;;;;18.92;3.67;;;;;;;5.32;100.00;102327.16;5033057;28;20056;-83
2024/01/23 07:20:50;;;;;;;18.17;3.70;;;;;;;5.38;100.00;102345.81;5032345;28;20440;-83
2024/01/23 07:23:15;;;;;;;21.75;3.78;;;;;;;5.31;100.00;102336.72;5033195;28;20029;-84
2024/01/23 07:25:41;;;;;;;16.80;3.80;;;;;;;5.39;100.00;102355.47;5033050;28;20041;-83
2024/01/23 07:28:06;;;;;;;18.80;3.45;;;;;;;5.36;100.00;102358.84;5032879;28;20437;-84
2024/01/23 07:30:32;;;;;;;17.63;3.83;;;;;;;5.27;100.00;102346.13;5015110;28;20042;-83
2024/01/23 07:32:57;;;;;;;17.80;3.53;;;;;;;5.25;100.00;102354.72;5032751;28;20390;-83
2024/01/23 07:35:22;;;;;;;20.25;3.70;;;;;;;5.20;100.00;102348.31;5032683;28;20494;-83
2024/01/23 07:37:48;;;;;;;23.95;3.55;;;;;;;5.37;100.00;102385.97;5032844;28;20371;-85
2024/01/23 07:40:15;;;;;;;20.92;3.45;;;;;;;5.36;100.00;102387.69;5015015;28;20060;-84
2024/01/23 07:42:40;;;;;;;20.50;3.95;;;;;;;5.40;100.00;102391.41;5032820;28;20037;-83
2024/01/23 07:45:06;;;;;;;20.65;3.60;;;;;;;5.39;100.00;102384.31;5032872;28;20390;-85
2024/01/23 07:47:31;;;;;;;18.98;3.42;;;;;;;5.38;100.00;102393.91;5015145;28;20036;-83
2024/01/23 07:49:57;;;;;;;21.42;3.70;;;;;;;5.41;100.00;102395.81;5032762;28;20052;-83
2024/01/23 07:52:22;;;;;;;17.35;3.40;;;;;;;5.27;100.00;102374.06;5032983;28;20045;-83
2024/01/23 07:54:50;;;;;;;17.85;3.30;;;;;;;5.32;100.00;102384.81;5032876;28;20091;-84
2024/01/23 07:57:15;;;;;;;20.90;3.28;;;;;;;5.35;100.00;102375.38;5032427;28;20474;-83
2024/01/23 07:59:41;;;;;;;22.00;3.72;;;;;;;5.38;100.00;102383.41;5032489;28;20087;-83
2024/01/23 08:02:06;;;;;;;23.10;4.13;;;;;;;5.42;100.00;102403.75;5032427;28;20049;-83
2024/01/23 08:04:32;;;;;;;20.27;3.47;;;;;;;5.31;100.00;102381.28;5014826;28;20068;-83
2024/01/23 08:06:57;;;;;;;17.27;3.42;;;;;;;5.50;100.00;102412.94;5032288;28;20037;-83
2024/01/23 08:09:23;;;;;;;16.70;3.60;;;;;;;5.55;100.00;102422.78;5032524;28;20087;-83
2024/01/23 08:11:49;;;;;;;16.80;3.67;;;;;;;5.61;100.00;102431.94;5032635;28;20026;-83
2024/01/23 08:14:14;;;;;;;15.93;3.53;;;;;;;5.67;100.00;102449.72;5032465;28;20036;-84
2024/01/23 08:16:44;;;;;;;23.60;3.70;;;;;;;5.71;100.00;102455.22;5032622;28;20116;-83
2024/01/23 08:19:11;;;;;;;21.55;4.10;;;;;;;5.77;100.00;102454.66;5032150;28;20501;-88
2024/01/23 08:21:37;;;;;;;22.55;4.13;;;;;;;5.78;100.00;102462.63;5032625;28;20025;-85
2024/01/23 08:24:02;;;;;;;18.98;3.78;;;;;;;5.70;100.00;102440.31;5015114;28;20039;-83
2024/01/23 08:26:28;;;;;;;24.65;3.85;;;;;;;5.63;100.00;102409.31;5014222;28;20389;-86
2024/01/23 08:28:53;;;;;;;20.35;4.10;;;;;;;6.03;100.00;102471.88;4995091;28;20062;-85
2024/01/23 08:31:19;;;;;;;19.00;4.32;;;;;;;6.04;100.00;102463.22;5012606;28;20034;-85
2024/01/23 08:33:44;;;;;;;20.05;3.80;;;;;;;6.13;100.00;102476.81;4998881;28;20109;-86
2024/01/23 08:36:10;;;;;;;28.10;4.07;;;;;;;6.22;100.00;102479.94;5017728;28;20100;-86
2024/01/23 08:38:36;;;;;;;18.85;3.40;;;;;;;6.33;100.00;102487.50;5016351;28;20091;-85
2024/01/23 08:41:02;;;;;;;20.60;3.22;;;;;;;6.44;100.00;102495.13;4982650;28;20036;-86
2024/01/23 08:43:27;;;;;;;22.05;3.95;;;;;;;6.56;100.00;102501.88;5016529;28;20116;-88
2024/01/23 08:45:53;;;;;;;22.05;3.90;;;;;;;6.58;100.00;102488.00;5016511;28;20089;-84
2024/01/23 08:48:21;;;;;;;22.73;4.25;;;;;;;6.67;100.00;102482.31;5015919;28;20033;-86
2024/01/23 08:50:47;;;;;;;14.95;3.50;;;;;;;6.86;100.00;102490.38;4998968;28;20064;-85
2024/01/23 08:53:13;;;;;;;20.77;3.83;;;;;;;7.03;100.00;102504.38;5016077;28;20443;-87
2024/01/23 08:55:38;;;;;;;21.00;3.65;;;;;;;6.85;98.70;102461.34;5015720;28;20117;-84
2024/01/23 08:58:04;;;;;;;14.45;3.60;;;;;;;7.23;99.31;102493.13;5015619;28;20038;-85
2024/01/23 09:00:29;;;;;;;21.17;4.18;;;;;;;7.30;98.51;102494.38;5015954;28;20061;-86
2024/01/23 09:02:54;;;;;;;14.70;3.40;;;;;;;7.46;98.09;102503.94;5015516;28;20036;-87
2024/01/23 09:05:20;;;;;;;19.65;4.50;;;;;;;7.52;97.43;102485.81;5015647;28;20096;-84
2024/01/23 09:07:45;;;;;;;20.20;4.20;;;;;;;7.81;96.28;102510.94;5015756;28;20038;-85
2024/01/23 09:10:11;;;;;;;17.35;3.63;;;;;;;7.97;95.02;102512.59;4998178;28;20038;-85
2024/01/23 09:12:36;;;;;;;21.73;3.75;;;;;;;7.80;94.17;102426.66;4997727;28;20367;-88
2024/01/23 09:15:05;;;;;;;17.50;3.63;;;;;;;8.18;93.91;102479.38;5015462;28;20454;-86
2024/01/23 09:17:30;;;;;;;19.23;3.97;;;;;;;8.49;93.59;102510.69;4998547;28;20104;-90
2024/01/23 09:20:04;;;;;;;21.08;3.67;;;;;;;8.84;92.12;102514.00;4981635;28;20478;-89
2024/01/23 09:22:30;;;;;;;20.17;3.95;;;;;;;8.79;89.77;102478.66;5015648;28;20030;-87
2024/01/23 09:24:55;;;;;;;20.52;4.10;;;;;;;9.22;89.14;102505.13;5014627;28;20064;-84
2024/01/23 09:27:20;;;;;;;17.83;3.65;;;;;;;9.39;88.28;102478.56;5015490;28;20026;-89
2024/01/23 09:29:46;;;;;;;21.20;3.70;;;;;;;9.67;86.29;102486.78;4997852;28;20386;-87
2024/01/23 09:32:11;;;;;;;18.02;3.85;;;;;;;9.77;86.75;102466.94;5014966;28;20041;-86
2024/01/23 09:34:37;;;;;;;20.35;3.30;;;;;;;9.91;85.51;102486.88;5015224;28;20037;-87
2024/01/23 09:37:02;;;;;;;20.73;4.03;;;;;;;9.74;84.18;102469.47;4997614;28;20073;-90
2024/01/23 09:39:28;;;;;;;23.15;3.92;;;;;;;9.85;85.07;102480.44;5018628;28;20054;-83
2024/01/23 09:41:59;;;;;;;17.10;3.83;;;;;;;9.95;85.12;102496.72;4997606;28;20034;-86
2024/01/23 09:44:24;;;;;;;20.27;3.60;;;;;;;9.82;83.45;102465.38;5014306;28;20433;-84
2024/01/23 09:46:51;;;;;;;18.02;4.30;;;;;;;10.17;83.31;102494.91;5015102;28;20109;-85
2024/01/23 09:49:18;;;;;;;20.13;3.90;;;;;;;10.40;82.30;102495.81;5014806;28;20038;-83
2024/01/23 09:51:53;;;;;;;18.48;3.90;;;;;;;10.63;81.86;102502.88;5014859;28;20485;-84
2024/01/23 09:54:18;;;;;;;22.98;4.22;;;;;;;10.32;79.84;102468.19;4998885;28;20037;-84
2024/01/23 09:56:44;;;;;;;18.98;4.00;;;;;;;10.50;80.84;102508.56;5014917;28;20402;-84
2024/01/23 09:59:09;;;;;;;18.90;4.00;;;;;;;10.38;80.82;102502.81;5014647;28;20034;-83
2024/01/23 10:01:35;;;;;;;18.55;4.07;;;;;;;10.34;81.21;102512.34;5014501;28;20117;-82
2024/01/23 10:04:04;;;;;;;19.52;3.97;;;;;;;10.15;81.79;102494.88;5014932;28;20141;-83
2024/01/23 10:06:30;;;;;;;20.83;3.88;;;;;;;10.22;82.64;102515.38;5014815;28;20061;-85
2024/01/23 10:08:56;;;;;;;19.55;3.65;;;;;;;10.11;81.53;102502.63;5014469;28;20084;-83
2024/01/23 10:11:21;;;;;;;18.40;4.28;;;;;;;10.28;82.49;102526.25;5014375;28;20542;-83
2024/01/23 10:13:47;;;;;;;18.92;4.35;;;;;;;10.32;81.96;102518.41;5014700;28;20037;-84
2024/01/23 10:16:15;;;;;;;23.83;4.38;;;;;;;10.13;81.38;102493.91;4996972;28;20125;-84
2024/01/23 10:18:40;;;;;;;19.67;4.00;;;;;;;10.18;80.70;102491.44;5014035;28;20394;-83
2024/01/23 10:21:05;;;;;;;18.90;4.00;;;;;;;10.25;81.71;102518.19;5014063;28;20032;-82
2024/01/23 10:23:34;;;;;;;23.70;4.18;;;;;;;10.19;80.63;102525.84;5014125;28;20029;-82
2024/01/23 10:25:59;;;;;;;22.95;4.20;;;;;;;10.27;81.60;102528.81;5014377;28;20030;-83
2024/01/23 10:28:25;;;;;;;17.45;4.00;;;;;;;10.27;80.21;102519.13;5014230;28;20088;-82
2024/01/23 10:30:50;;;;;;;18.27;3.83;;;;;;;10.34;80.54;102520.28;5014424;28;20029;-82
2024/01/23 10:33:16;;;;;;;17.20;3.92;;;;;;;10.43;80.49;102506.53;5014134;28;20052;-82
2024/01/23 10:35:42;;;;;;;22.63;4.13;;;;;;;10.60;79.45;102526.56;5014312;28;20045;-83
2024/01/23 10:38:13;;;;;;;20.40;4.18;;;;;;;10.70;79.64;102530.44;5013868;28;20123;-84
2024/01/23 10:40:38;;;;;;;20.65;4.20;;;;;;;10.62;78.92;102523.97;5014281;28;20558;-83
2024/01/23 10:43:06;;;;;;;21.75;4.07;;;;;;;10.70;79.18;102509.28;5014109;28;20180;-84
2024/01/23 10:45:32;;;;;;;21.63;4.50;;;;;;;10.88;79.14;102515.28;5013954;28;20442;-84
2024/01/23 10:48:00;;;;;;;21.42;3.83;;;;;;;11.00;78.28;102510.38;5014109;28;20022;-84
2024/01/23 10:50:29;;;;;;;18.10;4.05;;;;;;;10.88;78.13;102501.16;5013778;28;20034;-85
2024/01/23 10:53:05;;;;;;;23.02;5.07;;;;;;;10.81;77.93;102501.75;5014365;28;20175;-84
2024/01/23 10:55:38;;;;;;;26.02;4.35;;;;;;;10.55;77.75;102499.06;5014004;28;20028;-84
2024/01/23 10:58:09;;;;;;;21.33;4.40;;;;;;;10.52;79.06;102501.56;5014379;28;20032;-84
2024/01/23 11:00:37;;;;;;;18.13;4.40;;;;;;;10.44;79.61;102508.31;4996273;28;20029;-84
2024/01/23 11:03:05;;;;;;;16.65;4.05;;;;;;;10.58;79.76;102514.13;5013793;28;20285;-84
2024/01/23 11:05:47;;;;;;;17.35;4.18;;;;;;;10.73;79.44;102498.81;4996131;28;20057;-89
2024/01/23 11:08:23;;;;;;;28.60;5.05;;;;;;;10.72;78.20;102513.78;4996145;28;20057;-85
2024/01/23 11:10:51;;;;;;;18.88;4.20;;;;;;;10.30;78.50;102440.84;4996041;28;20029;-86
2024/01/23 11:13:32;;;;;;;23.65;4.20;;;;;;;10.56;79.21;102502.59;5013544;28;20026;-89